createdAt,value
2019-03-17T00:00:05.767Z,76052.04
2019-03-17T00:05:14.981Z,76089.97
2019-03-17T00:10:27.477Z,76073.00
2019-03-17T00:15:39.075Z,76054.03
2019-03-17T00:20:51.560Z,76039.06
2019-03-17T00:26:06.693Z,76020.09
2019-03-17T00:31:24.223Z,76010.12
2019-03-17T00:36:30.822Z,75994.14
2019-03-17T00:41:41.481Z,76000.13
2019-03-17T00:46:53.219Z,75985.16
2019-03-17T00:52:03.151Z,75961.20
2019-03-17T00:57:13.423Z,75979.17
2019-03-17T01:02:21.657Z,75977.17
2019-03-17T01:07:32.330Z,75997.14
2019-03-17T01:12:45.190Z,75986.16
2019-03-17T01:17:55.777Z,76001.13
2019-03-17T01:23:06.576Z,76001.13
2019-03-17T01:28:16.486Z,75989.16
2019-03-17T01:33:24.226Z,75992.15
2019-03-17T01:38:35.950Z,75992.15
2019-03-17T01:43:44.774Z,75989.16
2019-03-17T01:48:58.251Z,75993.14
2019-03-17T01:54:07.697Z,75998.14
2019-03-17T01:59:16.135Z,75993.14
2019-03-17T02:04:28.892Z,75989.16
2019-03-17T02:09:42.271Z,75999.14
2019-03-17T02:14:58.757Z,75991.15
2019-03-17T02:20:07.852Z,75993.14
2019-03-17T02:25:16.775Z,75989.16
2019-03-17T02:30:29.328Z,75987.16
2019-03-17T02:35:58.456Z,75984.16
2019-03-17T02:41:09.229Z,75975.17
2019-03-17T02:46:21.766Z,75998.14
2019-03-17T02:51:29.984Z,75996.14
2019-03-17T02:56:39.870Z,75997.14
2019-03-17T03:01:54.569Z,76002.13
2019-03-17T03:07:07.132Z,76024.09
2019-03-17T03:12:18.275Z,76077.00
2019-03-17T03:17:28.567Z,76131.90
2019-03-17T03:22:36.779Z,76154.86
2019-03-17T03:27:44.698Z,76160.84
2019-03-17T03:33:01.736Z,76161.84
2019-03-17T03:38:11.977Z,76170.83
2019-03-17T03:43:22.106Z,76167.84
2019-03-17T03:48:36.436Z,76184.80
2019-03-17T03:53:45.671Z,76187.80
2019-03-17T03:58:58.330Z,76195.79
2019-03-17T04:04:14.119Z,76201.78
2019-03-17T04:09:30.522Z,76190.80
2019-03-17T04:14:42.984Z,76199.78
2019-03-17T04:19:54.594Z,76191.80
2019-03-17T04:25:05.289Z,76202.78
2019-03-17T04:30:19.053Z,76202.78
2019-03-17T04:35:31.561Z,76200.78
2019-03-17T04:40:44.067Z,76197.78
2019-03-17T04:45:52.231Z,76203.77
2019-03-17T04:51:03.238Z,76204.77
2019-03-17T04:56:14.373Z,76237.72
2019-03-17T05:01:25.003Z,76240.71
2019-03-17T05:06:37.425Z,76280.64
2019-03-17T05:11:47.225Z,76310.59
2019-03-17T05:17:03.487Z,76334.55
2019-03-17T05:22:15.207Z,76380.47
2019-03-17T05:27:25.007Z,76379.47
2019-03-17T05:32:39.067Z,76396.44
2019-03-17T05:37:51.555Z,76457.34
2019-03-17T05:43:09.130Z,76513.25
2019-03-17T05:48:23.460Z,76540.20
2019-03-17T05:53:35.901Z,76553.18
2019-03-17T05:58:45.646Z,76574.14
2019-03-17T06:03:58.224Z,76580.14
2019-03-17T06:09:09.891Z,76584.13
2019-03-17T06:14:18.338Z,76599.11
2019-03-17T06:19:29.989Z,76617.08
2019-03-17T06:24:38.778Z,76630.05
2019-03-17T06:29:49.386Z,76634.05
2019-03-17T06:34:59.557Z,76644.03
2019-03-17T06:40:12.964Z,76703.94
2019-03-17T06:45:28.200Z,76695.95
2019-03-17T06:50:37.896Z,76690.95
2019-03-17T06:55:49.807Z,76711.92
2019-03-17T07:01:02.295Z,76698.94
2019-03-17T07:06:11.977Z,76716.91
2019-03-17T07:11:24.549Z,76741.88
2019-03-17T07:16:36.966Z,76737.88
2019-03-17T07:21:51.215Z,76751.86
2019-03-17T07:26:57.731Z,76747.86
2019-03-17T07:32:09.469Z,76737.88
2019-03-17T07:37:20.489Z,76733.89
2019-03-17T07:42:32.949Z,76713.92
2019-03-17T07:47:46.232Z,76691.95
2019-03-17T07:52:59.126Z,76677.98
2019-03-17T07:58:10.552Z,76675.98
2019-03-17T08:03:19.401Z,76641.04
2019-03-17T08:08:32.876Z,76619.08
2019-03-17T08:13:41.684Z,76582.13
2019-03-17T08:18:50.171Z,76560.17
2019-03-17T08:23:58.614Z,76612.09
2019-03-17T08:29:10.180Z,76663.00
2019-03-17T08:34:20.826Z,76691.95
2019-03-17T08:39:31.498Z,76673.98
2019-03-17T08:44:43.910Z,76628.06
2019-03-17T08:49:55.538Z,76634.05
2019-03-17T08:55:05.477Z,76616.08
2019-03-17T09:00:16.515Z,76617.08
2019-03-17T09:05:26.212Z,76609.09
2019-03-17T09:10:35.949Z,76618.08
2019-03-17T09:15:50.185Z,76587.13
2019-03-17T09:21:02.051Z,76550.19
2019-03-17T09:26:12.077Z,76693.95
2019-03-17T09:31:22.660Z,76713.92
2019-03-17T09:36:34.135Z,76698.94
2019-03-17T09:41:47.432Z,76725.90
2019-03-17T09:47:06.309Z,76703.94
2019-03-17T09:52:18.718Z,76665.00
2019-03-17T09:57:29.725Z,76647.03
2019-03-17T10:02:43.982Z,76580.14
2019-03-17T10:07:58.244Z,76606.09
2019-03-17T10:13:15.268Z,76702.94
2019-03-17T10:18:29.192Z,76754.85
2019-03-17T10:23:43.363Z,76743.87
2019-03-17T10:28:52.292Z,76749.86
2019-03-17T10:34:03.977Z,76734.89
2019-03-17T10:39:17.355Z,76534.22
2019-03-17T10:44:32.389Z,76482.30
2019-03-17T10:49:43.086Z,76092.97
2019-03-17T10:54:55.972Z,76280.64
2019-03-17T11:00:08.421Z,76555.17
2019-03-17T11:05:27.145Z,76577.14
2019-03-17T11:10:39.698Z,76482.30
2019-03-17T11:15:47.760Z,76286.63
2019-03-17T11:21:01.170Z,76099.95
2019-03-17T11:26:16.230Z,76019.10
2019-03-17T11:31:30.473Z,76075.00
2019-03-17T11:36:45.604Z,76061.02
2019-03-17T11:41:57.205Z,76284.63
2019-03-17T11:47:09.543Z,76501.27
2019-03-17T11:52:20.179Z,76332.55
2019-03-17T11:57:34.423Z,76130.91
2019-03-17T12:02:47.914Z,76511.25
2019-03-17T12:07:56.741Z,76511.25
2019-03-17T12:13:12.004Z,76540.20
2019-03-17T12:18:27.079Z,76160.84
2019-03-17T12:23:44.643Z,75688.70
2019-03-17T12:28:56.266Z,75870.37
2019-03-17T12:34:11.466Z,76312.59
2019-03-17T12:39:21.224Z,76443.36
2019-03-17T12:44:30.117Z,76457.34
2019-03-17T12:49:43.592Z,76360.50
2019-03-17T12:54:53.540Z,76225.73
2019-03-17T13:00:02.379Z,76106.95
2019-03-17T13:05:12.335Z,76089.97
2019-03-17T13:10:23.159Z,76330.55
2019-03-17T13:15:36.757Z,76097.96
2019-03-17T13:20:51.111Z,76090.97
2019-03-17T13:26:03.567Z,76238.72
2019-03-17T13:31:15.076Z,75610.84
2019-03-17T13:36:29.641Z,75510.05
2019-03-17T13:41:41.862Z,75196.66
2019-03-17T13:46:50.849Z,75933.25
2019-03-17T13:52:03.204Z,75887.34
2019-03-17T13:57:12.227Z,75905.30
2019-03-17T14:02:23.091Z,76118.92
2019-03-17T14:07:31.974Z,75807.48
2019-03-17T14:12:43.908Z,76001.13
2019-03-17T14:17:55.494Z,76047.05
2019-03-17T14:23:04.629Z,76070.01
2019-03-17T14:28:20.231Z,76170.83
2019-03-17T14:33:31.320Z,76136.89
2019-03-17T14:38:41.063Z,75785.52
2019-03-17T14:43:53.619Z,75640.80
2019-03-17T14:49:04.424Z,76248.70
2019-03-17T14:54:16.878Z,76363.50
2019-03-17T14:59:28.964Z,76347.52
2019-03-17T15:04:40.996Z,75969.19
2019-03-17T15:09:50.276Z,75817.47
2019-03-17T15:15:00.038Z,75721.64
2019-03-17T15:20:14.470Z,76092.97
2019-03-17T15:25:26.088Z,76161.84
2019-03-17T15:30:39.498Z,76265.66
2019-03-17T15:35:51.109Z,76424.39
2019-03-17T15:41:20.718Z,76512.25
2019-03-17T15:46:31.278Z,76572.15
2019-03-17T15:51:45.595Z,76590.13
2019-03-17T15:56:57.570Z,76628.06
2019-03-17T16:02:10.021Z,76624.06
2019-03-17T16:07:17.199Z,76660.00
2019-03-17T16:12:28.954Z,76666.00
2019-03-17T16:17:39.622Z,76685.97
2019-03-17T16:22:50.244Z,76717.91
2019-03-17T16:28:00.099Z,76725.90
2019-03-17T16:33:11.436Z,76772.83
2019-03-17T16:38:23.953Z,76813.76
2019-03-17T16:43:38.244Z,76825.74
2019-03-17T16:48:55.207Z,76851.70
2019-03-17T16:54:07.177Z,76866.67
2019-03-17T16:59:19.754Z,76929.58
2019-03-17T17:04:28.291Z,76965.52
2019-03-17T17:09:43.524Z,76967.52
2019-03-17T17:14:56.941Z,76995.47
2019-03-17T17:20:24.979Z,77011.45
2019-03-17T17:25:39.216Z,77029.42
2019-03-17T17:30:53.477Z,77039.41
2019-03-17T17:36:05.229Z,77055.38
2019-03-17T17:41:14.219Z,77075.35
2019-03-17T17:46:27.683Z,77065.37
2019-03-17T17:51:40.199Z,77109.30
2019-03-17T17:56:51.740Z,77156.23
2019-03-17T18:02:02.849Z,77159.22
2019-03-17T18:07:10.725Z,77173.20
2019-03-17T18:12:21.570Z,77178.20
2019-03-17T18:17:33.870Z,77202.16
2019-03-17T18:22:43.659Z,77251.09
2019-03-17T18:27:53.381Z,77279.05
2019-03-17T18:33:04.488Z,77303.02
2019-03-17T18:38:15.167Z,77323.98
2019-03-17T18:43:26.724Z,77344.95
2019-03-17T18:48:44.094Z,77368.91
2019-03-17T18:53:57.226Z,77396.88
2019-03-17T18:59:07.879Z,77411.86
2019-03-17T19:04:25.059Z,77421.84
2019-03-17T19:10:32.747Z,77428.83
2019-03-17T19:15:46.147Z,77434.82
2019-03-17T19:20:56.883Z,77438.81
2019-03-17T19:26:05.944Z,77452.80
2019-03-17T19:31:14.151Z,77472.77
2019-03-17T19:36:28.100Z,77482.75
2019-03-17T19:41:38.774Z,77510.72
2019-03-17T19:46:54.020Z,77520.70
2019-03-17T19:52:09.029Z,77532.68
2019-03-17T19:57:17.219Z,77551.66
2019-03-17T20:02:25.470Z,77533.68
2019-03-17T20:07:37.191Z,77546.66
2019-03-17T20:12:47.822Z,77556.65
2019-03-17T20:17:55.765Z,77617.56
2019-03-17T20:23:05.507Z,77617.56
2019-03-17T20:28:16.176Z,77683.47
2019-03-17T20:33:24.291Z,77682.47
2019-03-17T20:38:34.691Z,77725.41
2019-03-17T20:43:43.071Z,77742.39
2019-03-17T20:48:52.880Z,77759.37
2019-03-17T20:54:05.393Z,77769.36
2019-03-17T20:59:14.249Z,77766.36
2019-03-17T21:04:22.409Z,77780.34
2019-03-17T21:09:37.515Z,77786.33
2019-03-17T21:14:47.884Z,77792.33
2019-03-17T21:19:56.772Z,77800.31
2019-03-17T21:25:05.849Z,77802.31
2019-03-17T21:30:20.145Z,77805.31
2019-03-17T21:35:29.078Z,77795.32
2019-03-17T21:40:36.756Z,77786.33
2019-03-17T21:45:51.012Z,77778.34
2019-03-17T21:51:01.135Z,77793.33
2019-03-17T21:56:16.402Z,77796.32
2019-03-17T22:01:23.691Z,77802.31
2019-03-17T22:06:35.347Z,77798.31
2019-03-17T22:11:43.304Z,77794.33
2019-03-17T22:16:53.897Z,77796.32
2019-03-17T22:22:05.599Z,77800.31
2019-03-17T22:27:19.047Z,77804.31
2019-03-17T22:32:32.355Z,77801.31
2019-03-17T22:37:42.113Z,77804.31
2019-03-17T22:42:55.847Z,77800.31
2019-03-17T22:48:07.919Z,77806.31
2019-03-17T22:53:15.182Z,77819.29
2019-03-17T22:58:29.412Z,77821.28
2019-03-17T23:03:37.523Z,77841.26
2019-03-17T23:08:51.692Z,77841.26
2019-03-17T23:14:01.555Z,77848.25
2019-03-17T23:19:09.651Z,77857.23
2019-03-17T23:24:15.684Z,77853.24
2019-03-17T23:29:29.956Z,77854.24
2019-03-17T23:34:37.650Z,77854.24
2019-03-17T23:39:52.174Z,77854.24
2019-03-17T23:45:05.614Z,77858.23
2019-03-17T23:50:17.817Z,77863.23
2019-03-17T23:55:30.455Z,77868.22
